sensor_id;sensor_type;location;lat;lon;timestamp;P1;durP1;ratioP1;P2;durP2;ratioP2
43226;SDS011;28839;52.404;9.808;2023-04-03T00:03:58;10.35;;;1.67;;
43226;SDS011;28839;52.404;9.808;2023-04-03T00:10:52;3.75;;;1.30;;
43226;SDS011;28839;52.404;9.808;2023-04-03T00:17:47;8.13;;;2.08;;
43226;SDS011;28839;52.404;9.808;2023-04-03T00:24:41;7.53;;;2.00;;
43226;SDS011;28839;52.404;9.808;2023-04-03T00:31:35;7.75;;;1.90;;
43226;SDS011;28839;52.404;9.808;2023-04-03T00:38:30;3.90;;;1.40;;
43226;SDS011;28839;52.404;9.808;2023-04-03T00:45:31;3.35;;;1.33;;
43226;SDS011;28839;52.404;9.808;2023-04-03T00:52:28;5.50;;;1.77;;
43226;SDS011;28839;52.404;9.808;2023-04-03T00:59:25;4.57;;;1.55;;
43226;SDS011;28839;52.404;9.808;2023-04-03T01:06:24;7.50;;;1.85;;
43226;SDS011;28839;52.404;9.808;2023-04-03T01:13:24;6.22;;;1.77;;
43226;SDS011;28839;52.404;9.808;2023-04-03T01:27:43;5.15;;;1.80;;
43226;SDS011;28839;52.404;9.808;2023-04-03T01:34:38;7.25;;;1.35;;
43226;SDS011;28839;52.404;9.808;2023-04-03T01:41:32;4.22;;;1.55;;
43226;SDS011;28839;52.404;9.808;2023-04-03T01:48:26;7.27;;;1.63;;
43226;SDS011;28839;52.404;9.808;2023-04-03T01:55:21;5.85;;;2.03;;
43226;SDS011;28839;52.404;9.808;2023-04-03T02:02:14;3.03;;;1.20;;
43226;SDS011;28839;52.404;9.808;2023-04-03T02:09:08;8.48;;;1.73;;
43226;SDS011;28839;52.404;9.808;2023-04-03T02:16:07;6.82;;;1.92;;
43226;SDS011;28839;52.404;9.808;2023-04-03T02:23:03;5.55;;;1.83;;
43226;SDS011;28839;52.404;9.808;2023-04-03T02:29:57;5.78;;;1.75;;
43226;SDS011;28839;52.404;9.808;2023-04-03T02:36:52;4.53;;;1.62;;
43226;SDS011;28839;52.404;9.808;2023-04-03T02:43:46;6.68;;;1.50;;
43226;SDS011;28839;52.404;9.808;2023-04-03T02:50:40;5.65;;;2.00;;
43226;SDS011;28839;52.404;9.808;2023-04-03T02:57:36;3.58;;;1.40;;
43226;SDS011;28839;52.404;9.808;2023-04-03T03:04:30;6.62;;;1.65;;
43226;SDS011;28839;52.404;9.808;2023-04-03T03:11:23;5.10;;;1.48;;
43226;SDS011;28839;52.404;9.808;2023-04-03T03:18:19;5.15;;;1.98;;
43226;SDS011;28839;52.404;9.808;2023-04-03T03:25:13;7.93;;;1.98;;
43226;SDS011;28839;52.404;9.808;2023-04-03T03:32:07;5.57;;;1.47;;
43226;SDS011;28839;52.404;9.808;2023-04-03T03:39:02;5.37;;;1.80;;
43226;SDS011;28839;52.404;9.808;2023-04-03T03:45:56;5.40;;;1.65;;
43226;SDS011;28839;52.404;9.808;2023-04-03T03:52:50;5.93;;;1.60;;
43226;SDS011;28839;52.404;9.808;2023-04-03T03:59:45;8.52;;;2.12;;
43226;SDS011;28839;52.404;9.808;2023-04-03T04:06:40;6.70;;;2.20;;
43226;SDS011;28839;52.404;9.808;2023-04-03T04:13:34;3.75;;;1.55;;
43226;SDS011;28839;52.404;9.808;2023-04-03T04:20:29;4.15;;;1.70;;
43226;SDS011;28839;52.404;9.808;2023-04-03T04:27:23;7.10;;;2.83;;
43226;SDS011;28839;52.404;9.808;2023-04-03T04:34:17;10.98;;;3.33;;
43226;SDS011;28839;52.404;9.808;2023-04-03T04:41:12;6.43;;;2.33;;
43226;SDS011;28839;52.404;9.808;2023-04-03T04:48:06;15.07;;;4.68;;
43226;SDS011;28839;52.404;9.808;2023-04-03T04:55:00;8.30;;;2.33;;
43226;SDS011;28839;52.404;9.808;2023-04-03T05:01:55;6.05;;;1.65;;
43226;SDS011;28839;52.404;9.808;2023-04-03T05:08:49;6.15;;;2.58;;
43226;SDS011;28839;52.404;9.808;2023-04-03T05:15:43;13.65;;;1.98;;
43226;SDS011;28839;52.404;9.808;2023-04-03T05:22:39;18.08;;;6.60;;
43226;SDS011;28839;52.404;9.808;2023-04-03T05:29:33;18.02;;;10.85;;
43226;SDS011;28839;52.404;9.808;2023-04-03T05:36:27;13.80;;;4.97;;
43226;SDS011;28839;52.404;9.808;2023-04-03T05:43:22;11.80;;;2.30;;
43226;SDS011;28839;52.404;9.808;2023-04-03T05:50:16;7.53;;;2.65;;
43226;SDS011;28839;52.404;9.808;2023-04-03T05:57:10;11.30;;;3.27;;
43226;SDS011;28839;52.404;9.808;2023-04-03T06:04:05;5.95;;;2.33;;
43226;SDS011;28839;52.404;9.808;2023-04-03T06:11:01;10.05;;;3.42;;
43226;SDS011;28839;52.404;9.808;2023-04-03T06:17:55;10.43;;;1.83;;
43226;SDS011;28839;52.404;9.808;2023-04-03T06:24:50;3.67;;;1.73;;
43226;SDS011;28839;52.404;9.808;2023-04-03T06:31:44;6.70;;;2.40;;
43226;SDS011;28839;52.404;9.808;2023-04-03T06:38:38;5.00;;;1.27;;
43226;SDS011;28839;52.404;9.808;2023-04-03T06:45:34;5.12;;;1.60;;
43226;SDS011;28839;52.404;9.808;2023-04-03T06:52:28;6.20;;;1.23;;
43226;SDS011;28839;52.404;9.808;2023-04-03T06:59:22;8.10;;;1.77;;
43226;SDS011;28839;52.404;9.808;2023-04-03T07:06:17;6.32;;;1.52;;
43226;SDS011;28839;52.404;9.808;2023-04-03T07:13:12;8.63;;;1.65;;
43226;SDS011;28839;52.404;9.808;2023-04-03T07:20:06;4.85;;;1.23;;
43226;SDS011;28839;52.404;9.808;2023-04-03T07:27:02;3.87;;;1.40;;
43226;SDS011;28839;52.404;9.808;2023-04-03T07:33:57;7.15;;;1.45;;
43226;SDS011;28839;52.404;9.808;2023-04-03T07:40:51;4.93;;;2.25;;
43226;SDS011;28839;52.404;9.808;2023-04-03T07:47:47;4.27;;;1.63;;
43226;SDS011;28839;52.404;9.808;2023-04-03T07:54:41;10.00;;;1.70;;
43226;SDS011;28839;52.404;9.808;2023-04-03T08:01:35;3.97;;;1.10;;
43226;SDS011;28839;52.404;9.808;2023-04-03T08:08:30;4.57;;;1.55;;
43226;SDS011;28839;52.404;9.808;2023-04-03T08:15:24;4.37;;;1.67;;
43226;SDS011;28839;52.404;9.808;2023-04-03T08:22:19;4.10;;;1.13;;
43226;SDS011;28839;52.404;9.808;2023-04-03T08:29:14;5.87;;;1.10;;
43226;SDS011;28839;52.404;9.808;2023-04-03T08:36:15;4.07;;;1.55;;
43226;SDS011;28839;52.404;9.808;2023-04-03T08:43:18;7.43;;;1.23;;
43226;SDS011;28839;52.404;9.808;2023-04-03T08:50:24;3.75;;;1.33;;
43226;SDS011;28839;52.404;9.808;2023-04-03T08:57:26;3.22;;;1.00;;
43226;SDS011;28839;52.404;9.808;2023-04-03T09:04:23;2.80;;;0.75;;
43226;SDS011;28839;52.404;9.808;2023-04-03T09:11:23;2.90;;;1.30;;
43226;SDS011;28839;52.404;9.808;2023-04-03T09:18:21;2.37;;;1.33;;
43226;SDS011;28839;52.404;9.808;2023-04-03T09:25:20;3.67;;;1.37;;
43226;SDS011;28839;52.404;9.808;2023-04-03T09:32:21;4.55;;;1.05;;
43226;SDS011;28839;52.404;9.808;2023-04-03T09:39:19;3.80;;;1.05;;
43226;SDS011;28839;52.404;9.808;2023-04-03T09:46:20;4.93;;;1.50;;
43226;SDS011;28839;52.404;9.808;2023-04-03T09:53:26;2.53;;;1.00;;
43226;SDS011;28839;52.404;9.808;2023-04-03T10:00:23;2.55;;;0.88;;
43226;SDS011;28839;52.404;9.808;2023-04-03T10:07:29;2.92;;;1.10;;
43226;SDS011;28839;52.404;9.808;2023-04-03T10:14:26;3.53;;;0.98;;
43226;SDS011;28839;52.404;9.808;2023-04-03T10:21:23;1.87;;;0.90;;
43226;SDS011;28839;52.404;9.808;2023-04-03T10:28:29;3.10;;;0.90;;
43226;SDS011;28839;52.404;9.808;2023-04-03T10:35:33;4.65;;;1.17;;
43226;SDS011;28839;52.404;9.808;2023-04-03T10:42:37;2.40;;;0.93;;
43226;SDS011;28839;52.404;9.808;2023-04-03T10:49:42;5.12;;;1.90;;
43226;SDS011;28839;52.404;9.808;2023-04-03T10:56:45;3.33;;;0.95;;
43226;SDS011;28839;52.404;9.808;2023-04-03T11:03:44;2.17;;;0.93;;
43226;SDS011;28839;52.404;9.808;2023-04-03T11:10:41;3.08;;;0.90;;
43226;SDS011;28839;52.404;9.808;2023-04-03T11:17:38;2.17;;;1.35;;
43226;SDS011;28839;52.404;9.808;2023-04-03T11:24:39;2.28;;;1.08;;
43226;SDS011;28839;52.404;9.808;2023-04-03T11:31:38;3.37;;;1.12;;
43226;SDS011;28839;52.404;9.808;2023-04-03T11:38:46;3.83;;;1.48;;
43226;SDS011;28839;52.404;9.808;2023-04-03T11:45:50;2.75;;;1.02;;
43226;SDS011;28839;52.404;9.808;2023-04-03T11:53:00;4.47;;;1.27;;
43226;SDS011;28839;52.404;9.808;2023-04-03T11:59:57;3.80;;;1.15;;
43226;SDS011;28839;52.404;9.808;2023-04-03T12:14:13;3.70;;;0.90;;
43226;SDS011;28839;52.404;9.808;2023-04-03T12:21:10;3.60;;;1.45;;
43226;SDS011;28839;52.404;9.808;2023-04-03T12:28:05;3.42;;;2.62;;
43226;SDS011;28839;52.404;9.808;2023-04-03T12:35:10;2.60;;;1.10;;
43226;SDS011;28839;52.404;9.808;2023-04-03T12:42:20;3.55;;;1.20;;
43226;SDS011;28839;52.404;9.808;2023-04-03T12:49:33;4.78;;;1.42;;
43226;SDS011;28839;52.404;9.808;2023-04-03T12:56:31;2.12;;;1.58;;
43226;SDS011;28839;52.404;9.808;2023-04-03T13:03:27;3.20;;;1.10;;
43226;SDS011;28839;52.404;9.808;2023-04-03T13:10:22;3.47;;;1.23;;
43226;SDS011;28839;52.404;9.808;2023-04-03T13:17:16;3.60;;;1.20;;
43226;SDS011;28839;52.404;9.808;2023-04-03T13:24:11;2.97;;;1.30;;
43226;SDS011;28839;52.404;9.808;2023-04-03T13:31:07;2.92;;;0.80;;
43226;SDS011;28839;52.404;9.808;2023-04-03T13:38:21;5.83;;;1.80;;
43226;SDS011;28839;52.404;9.808;2023-04-03T13:45:20;2.22;;;0.85;;
43226;SDS011;28839;52.404;9.808;2023-04-03T13:52:23;3.47;;;1.73;;
43226;SDS011;28839;52.404;9.808;2023-04-03T13:59:22;3.45;;;1.00;;
43226;SDS011;28839;52.404;9.808;2023-04-03T14:06:19;2.92;;;0.98;;
43226;SDS011;28839;52.404;9.808;2023-04-03T14:13:13;3.70;;;1.23;;
43226;SDS011;28839;52.404;9.808;2023-04-03T14:20:10;1.77;;;1.10;;
43226;SDS011;28839;52.404;9.808;2023-04-03T14:27:10;5.00;;;1.15;;
43226;SDS011;28839;52.404;9.808;2023-04-03T14:34:09;3.30;;;1.25;;
43226;SDS011;28839;52.404;9.808;2023-04-03T14:41:03;2.07;;;1.13;;
43226;SDS011;28839;52.404;9.808;2023-04-03T14:47:58;3.20;;;1.20;;
43226;SDS011;28839;52.404;9.808;2023-04-03T14:54:52;2.92;;;1.20;;
43226;SDS011;28839;52.404;9.808;2023-04-03T15:01:47;2.58;;;1.17;;
43226;SDS011;28839;52.404;9.808;2023-04-03T15:08:43;3.15;;;1.00;;
43226;SDS011;28839;52.404;9.808;2023-04-03T15:15:38;1.87;;;1.15;;
43226;SDS011;28839;52.404;9.808;2023-04-03T15:22:32;2.87;;;1.00;;
43226;SDS011;28839;52.404;9.808;2023-04-03T15:29:28;6.22;;;1.73;;
43226;SDS011;28839;52.404;9.808;2023-04-03T15:36:22;5.28;;;1.17;;
43226;SDS011;28839;52.404;9.808;2023-04-03T15:43:16;2.30;;;1.08;;
43226;SDS011;28839;52.404;9.808;2023-04-03T15:50:11;3.33;;;1.00;;
43226;SDS011;28839;52.404;9.808;2023-04-03T15:57:05;4.60;;;1.20;;
43226;SDS011;28839;52.404;9.808;2023-04-03T16:03:59;4.65;;;1.12;;
43226;SDS011;28839;52.404;9.808;2023-04-03T16:10:54;4.93;;;1.50;;
43226;SDS011;28839;52.404;9.808;2023-04-03T16:17:48;2.40;;;0.85;;
43226;SDS011;28839;52.404;9.808;2023-04-03T16:24:42;4.65;;;1.23;;
43226;SDS011;28839;52.404;9.808;2023-04-03T16:31:37;2.35;;;1.05;;
43226;SDS011;28839;52.404;9.808;2023-04-03T16:38:31;2.83;;;1.23;;
43226;SDS011;28839;52.404;9.808;2023-04-03T16:45:25;4.07;;;1.23;;
43226;SDS011;28839;52.404;9.808;2023-04-03T16:52:21;5.53;;;1.30;;
43226;SDS011;28839;52.404;9.808;2023-04-03T16:59:15;2.50;;;1.00;;
43226;SDS011;28839;52.404;9.808;2023-04-03T17:06:09;3.58;;;1.52;;
43226;SDS011;28839;52.404;9.808;2023-04-03T17:13:09;2.83;;;1.25;;
43226;SDS011;28839;52.404;9.808;2023-04-03T17:20:03;4.35;;;1.30;;
43226;SDS011;28839;52.404;9.808;2023-04-03T17:26:58;8.75;;;1.75;;
43226;SDS011;28839;52.404;9.808;2023-04-03T17:33:53;3.12;;;1.33;;
43226;SDS011;28839;52.404;9.808;2023-04-03T17:40:47;2.87;;;1.83;;
43226;SDS011;28839;52.404;9.808;2023-04-03T17:47:41;6.03;;;2.20;;
43226;SDS011;28839;52.404;9.808;2023-04-03T17:54:36;4.72;;;1.67;;
43226;SDS011;28839;52.404;9.808;2023-04-03T18:01:30;5.20;;;1.58;;
43226;SDS011;28839;52.404;9.808;2023-04-03T18:08:26;3.22;;;1.35;;
43226;SDS011;28839;52.404;9.808;2023-04-03T18:15:23;4.80;;;2.00;;
43226;SDS011;28839;52.404;9.808;2023-04-03T18:22:18;3.10;;;1.80;;
43226;SDS011;28839;52.404;9.808;2023-04-03T18:29:14;5.60;;;2.53;;
43226;SDS011;28839;52.404;9.808;2023-04-03T18:36:09;4.68;;;1.85;;
43226;SDS011;28839;52.404;9.808;2023-04-03T18:43:03;3.12;;;1.42;;
43226;SDS011;28839;52.404;9.808;2023-04-03T18:49:57;4.90;;;1.42;;
43226;SDS011;28839;52.404;9.808;2023-04-03T18:56:52;2.80;;;1.52;;
43226;SDS011;28839;52.404;9.808;2023-04-03T19:03:46;4.45;;;1.70;;
43226;SDS011;28839;52.404;9.808;2023-04-03T19:10:40;3.15;;;1.35;;
43226;SDS011;28839;52.404;9.808;2023-04-03T19:17:36;4.05;;;1.70;;
43226;SDS011;28839;52.404;9.808;2023-04-03T19:24:30;2.87;;;1.30;;
43226;SDS011;28839;52.404;9.808;2023-04-03T19:31:24;4.50;;;1.15;;
43226;SDS011;28839;52.404;9.808;2023-04-03T19:38:19;3.20;;;1.55;;
43226;SDS011;28839;52.404;9.808;2023-04-03T19:45:13;1.95;;;1.55;;
43226;SDS011;28839;52.404;9.808;2023-04-03T19:52:09;8.98;;;1.75;;
43226;SDS011;28839;52.404;9.808;2023-04-03T19:59:04;8.02;;;2.03;;
43226;SDS011;28839;52.404;9.808;2023-04-03T20:12:51;5.32;;;2.00;;
43226;SDS011;28839;52.404;9.808;2023-04-03T20:19:47;6.12;;;2.12;;
43226;SDS011;28839;52.404;9.808;2023-04-03T20:26:42;2.45;;;1.65;;
43226;SDS011;28839;52.404;9.808;2023-04-03T20:33:37;4.72;;;1.50;;
43226;SDS011;28839;52.404;9.808;2023-04-03T20:40:33;4.45;;;1.98;;
43226;SDS011;28839;52.404;9.808;2023-04-03T20:47:28;4.25;;;1.92;;
43226;SDS011;28839;52.404;9.808;2023-04-03T20:54:22;4.20;;;1.25;;
43226;SDS011;28839;52.404;9.808;2023-04-03T21:01:18;6.35;;;3.17;;
43226;SDS011;28839;52.404;9.808;2023-04-03T21:22:40;4.50;;;1.33;;
43226;SDS011;28839;52.404;9.808;2023-04-03T21:29:36;2.83;;;1.30;;
43226;SDS011;28839;52.404;9.808;2023-04-03T21:36:38;4.70;;;2.28;;
43226;SDS011;28839;52.404;9.808;2023-04-03T21:43:33;3.72;;;1.23;;
43226;SDS011;28839;52.404;9.808;2023-04-03T21:50:27;7.18;;;1.80;;
43226;SDS011;28839;52.404;9.808;2023-04-03T21:57:21;3.20;;;1.50;;
43226;SDS011;28839;52.404;9.808;2023-04-03T22:04:16;4.82;;;1.75;;
43226;SDS011;28839;52.404;9.808;2023-04-03T22:11:10;6.00;;;1.52;;
43226;SDS011;28839;52.404;9.808;2023-04-03T22:18:05;5.15;;;1.65;;
43226;SDS011;28839;52.404;9.808;2023-04-03T22:25:00;2.72;;;1.45;;
43226;SDS011;28839;52.404;9.808;2023-04-03T22:31:54;4.72;;;1.37;;
43226;SDS011;28839;52.404;9.808;2023-04-03T22:38:48;3.85;;;1.48;;
43226;SDS011;28839;52.404;9.808;2023-04-03T22:45:47;3.97;;;1.37;;
43226;SDS011;28839;52.404;9.808;2023-04-03T22:52:41;3.37;;;1.45;;
43226;SDS011;28839;52.404;9.808;2023-04-03T22:59:35;3.50;;;1.60;;
43226;SDS011;28839;52.404;9.808;2023-04-03T23:06:30;5.62;;;1.52;;
43226;SDS011;28839;52.404;9.808;2023-04-03T23:13:24;2.67;;;1.30;;
43226;SDS011;28839;52.404;9.808;2023-04-03T23:20:19;5.15;;;1.70;;
43226;SDS011;28839;52.404;9.808;2023-04-03T23:27:14;5.85;;;1.55;;
43226;SDS011;28839;52.404;9.808;2023-04-03T23:34:08;2.37;;;1.60;;
43226;SDS011;28839;52.404;9.808;2023-04-03T23:41:02;4.50;;;1.67;;
43226;SDS011;28839;52.404;9.808;2023-04-03T23:47:57;3.35;;;1.50;;
43226;SDS011;28839;52.404;9.808;2023-04-03T23:54:51;3.83;;;1.65;;
